createdAt,value
2019-02-11T00:01:42.631Z,2.35
2019-02-11T00:04:32.608Z,0.62
2019-02-11T00:07:21.764Z,0.70
2019-02-11T00:10:10.196Z,1.00
2019-02-11T00:12:59.128Z,0.80
2019-02-11T00:15:47.870Z,1.90
2019-02-11T00:18:38.788Z,1.25
2019-02-11T00:21:27.411Z,2.52
2019-02-11T00:24:16.194Z,1.42
2019-02-11T00:27:05.090Z,1.10
2019-02-11T00:29:53.922Z,2.42
2019-02-11T00:32:42.475Z,2.55
2019-02-11T00:35:31.460Z,1.65
2019-02-11T00:38:20.281Z,1.45
2019-02-11T00:41:09.044Z,3.77
2019-02-11T00:43:58.296Z,1.72
2019-02-11T00:46:47.184Z,2.98
2019-02-11T00:49:35.883Z,4.12
2019-02-11T00:52:25.250Z,1.90
2019-02-11T00:55:14.100Z,2.10
2019-02-11T00:58:03.202Z,2.08
2019-02-11T01:00:51.867Z,2.60
2019-02-11T01:03:40.892Z,2.15
2019-02-11T01:06:29.493Z,2.20
2019-02-11T01:09:18.171Z,2.10
2019-02-11T01:12:07.051Z,2.12
2019-02-11T01:14:55.966Z,2.10
2019-02-11T01:17:44.842Z,2.25
2019-02-11T01:20:33.469Z,1.75
2019-02-11T01:23:22.226Z,2.20
2019-02-11T01:26:10.897Z,2.17
2019-02-11T01:28:59.670Z,1.50
2019-02-11T01:31:48.141Z,1.95
2019-02-11T01:34:36.843Z,1.60
2019-02-11T01:37:25.560Z,1.40
2019-02-11T01:40:14.447Z,1.40
2019-02-11T01:43:03.270Z,1.62
2019-02-11T01:45:51.769Z,1.47
2019-02-11T01:48:40.715Z,1.30
2019-02-11T01:51:29.367Z,1.25
2019-02-11T01:54:18.355Z,1.30
2019-02-11T01:57:06.907Z,1.10
2019-02-11T01:59:55.520Z,1.15
2019-02-11T02:02:44.389Z,1.25
2019-02-11T02:05:33.566Z,1.47
2019-02-11T02:08:22.444Z,1.22
2019-02-11T02:11:11.241Z,1.67
2019-02-11T02:13:59.796Z,1.87
2019-02-11T02:16:48.548Z,1.27
2019-02-11T02:19:37.152Z,1.15
2019-02-11T02:22:26.896Z,1.22
2019-02-11T02:25:15.920Z,1.17
2019-02-11T02:28:04.644Z,1.05
2019-02-11T02:30:53.253Z,0.93
2019-02-11T02:33:42.364Z,0.80
2019-02-11T02:36:31.232Z,3.58
2019-02-11T02:39:19.988Z,3.05
2019-02-11T02:42:08.734Z,0.70
2019-02-11T02:44:57.420Z,0.70
2019-02-11T02:47:46.278Z,0.80
2019-02-11T02:50:35.017Z,0.80
2019-02-11T02:53:24.515Z,0.85
2019-02-11T02:56:13.038Z,2.08
2019-02-11T02:59:01.804Z,0.80
2019-02-11T03:01:50.994Z,0.93
2019-02-11T03:04:39.970Z,0.70
2019-02-11T03:07:29.071Z,1.00
2019-02-11T03:10:18.176Z,1.10
2019-02-11T03:13:07.269Z,1.00
2019-02-11T03:15:55.877Z,0.80
2019-02-11T03:18:44.655Z,0.60
2019-02-11T03:21:33.554Z,0.50
2019-02-11T03:24:22.526Z,0.45
2019-02-11T03:27:11.564Z,0.40
2019-02-11T03:30:00.636Z,0.50
2019-02-11T03:32:49.348Z,0.55
2019-02-11T03:35:38.376Z,0.30
2019-02-11T03:38:27.209Z,0.40
2019-02-11T03:41:15.814Z,0.53
2019-02-11T03:44:04.669Z,0.40
2019-02-11T03:46:53.333Z,0.40
2019-02-11T03:49:41.975Z,2.77
2019-02-11T03:52:31.188Z,0.40
2019-02-11T03:55:19.824Z,1.30
2019-02-11T03:58:08.493Z,0.40
2019-02-11T04:00:57.248Z,0.57
2019-02-11T04:03:46.031Z,0.33
2019-02-11T04:06:35.711Z,0.33
2019-02-11T04:09:24.676Z,0.50
2019-02-11T04:12:13.492Z,0.85
2019-02-11T04:15:02.021Z,3.47
2019-02-11T04:17:51.145Z,1.10
2019-02-11T04:20:40.379Z,2.42
2019-02-11T04:23:29.396Z,2.67
2019-02-11T04:26:18.129Z,5.03
2019-02-11T04:29:06.759Z,4.37
2019-02-11T04:31:55.295Z,2.12
2019-02-11T04:34:44.172Z,8.38
2019-02-11T04:37:33.172Z,6.28
2019-02-11T04:40:22.149Z,7.15
2019-02-11T04:43:11.063Z,8.20
2019-02-11T04:45:59.586Z,7.12
2019-02-11T04:48:48.233Z,9.18
2019-02-11T04:51:37.211Z,11.80
2019-02-11T04:54:25.927Z,7.15
2019-02-11T04:57:15.102Z,13.03
2019-02-11T05:00:06.086Z,10.03
2019-02-11T05:02:55.725Z,18.00
2019-02-11T05:05:44.886Z,14.73
2019-02-11T05:08:34.064Z,15.95
2019-02-11T05:11:23.225Z,15.78
2019-02-11T05:14:12.041Z,18.27
2019-02-11T05:17:00.840Z,17.95
2019-02-11T05:19:49.751Z,11.00
2019-02-11T05:22:38.699Z,17.52
2019-02-11T05:25:27.828Z,15.98
2019-02-11T05:28:16.711Z,15.25
2019-02-11T05:31:05.877Z,16.52
2019-02-11T05:33:54.443Z,11.57
2019-02-11T05:36:43.415Z,24.40
2019-02-11T05:39:32.318Z,13.30
2019-02-11T05:42:21.153Z,16.93
2019-02-11T05:45:10.052Z,15.50
2019-02-11T05:47:58.802Z,16.90
2019-02-11T05:50:47.557Z,13.68
2019-02-11T05:53:36.567Z,9.95
2019-02-11T05:56:25.419Z,18.75
2019-02-11T05:59:14.031Z,17.07
2019-02-11T06:02:02.829Z,14.58
2019-02-11T06:04:51.419Z,17.65
2019-02-11T06:07:40.259Z,13.45
2019-02-11T06:10:29.059Z,19.25
2019-02-11T06:13:17.542Z,15.58
2019-02-11T06:16:06.325Z,14.38
2019-02-11T06:18:55.237Z,14.45
2019-02-11T06:21:43.829Z,8.45
2019-02-11T06:24:32.976Z,14.53
2019-02-11T06:27:21.492Z,12.33
2019-02-11T06:30:14.080Z,14.38
2019-02-11T06:33:02.882Z,12.43
2019-02-11T06:35:51.677Z,9.53
2019-02-11T06:38:40.541Z,12.33
2019-02-11T06:41:29.577Z,11.12
2019-02-11T06:44:18.129Z,13.35
2019-02-11T06:47:06.538Z,7.62
2019-02-11T06:49:55.382Z,11.60
2019-02-11T06:52:44.039Z,13.08
2019-02-11T06:55:33.064Z,7.97
2019-02-11T06:58:21.670Z,10.00
2019-02-11T07:01:10.494Z,8.10
2019-02-11T07:03:59.173Z,10.80
2019-02-11T07:06:50.913Z,12.28
2019-02-11T07:09:39.822Z,7.35
2019-02-11T07:12:28.633Z,9.68
2019-02-11T07:15:22.248Z,13.03
2019-02-11T07:18:07.860Z,12.47
2019-02-11T07:20:56.416Z,9.13
2019-02-11T07:23:45.355Z,10.95
2019-02-11T07:26:34.211Z,7.17
2019-02-11T07:29:22.776Z,13.72
2019-02-11T07:32:11.515Z,9.78
2019-02-11T07:35:00.466Z,6.70
2019-02-11T07:37:49.080Z,5.70
2019-02-11T07:40:38.975Z,8.43
2019-02-11T07:43:29.794Z,9.88
2019-02-11T07:46:20.259Z,9.05
2019-02-11T07:49:08.743Z,5.22
2019-02-11T07:51:57.314Z,7.50
2019-02-11T07:54:45.998Z,7.65
2019-02-11T07:57:34.956Z,8.65
2019-02-11T08:00:23.546Z,6.35
2019-02-11T08:03:12.088Z,11.80
2019-02-11T08:06:02.074Z,7.28
2019-02-11T08:08:50.885Z,7.95
2019-02-11T08:11:39.715Z,14.55
2019-02-11T08:14:28.676Z,7.45
2019-02-11T08:17:17.283Z,9.75
2019-02-11T08:20:08.647Z,15.23
2019-02-11T08:22:58.165Z,8.80
2019-02-11T08:25:47.796Z,9.78
2019-02-11T08:28:36.484Z,13.50
2019-02-11T08:31:25.443Z,13.32
2019-02-11T08:34:14.269Z,11.43
2019-02-11T08:37:03.172Z,12.28
2019-02-11T08:39:51.637Z,12.90
2019-02-11T08:42:40.468Z,12.60
2019-02-11T08:45:29.403Z,11.65
2019-02-11T08:48:18.644Z,19.25
2019-02-11T08:51:07.271Z,11.03
2019-02-11T08:53:55.773Z,17.32
2019-02-11T08:56:44.354Z,13.18
2019-02-11T08:59:34.499Z,22.45
2019-02-11T09:02:23.497Z,15.75
2019-02-11T09:05:11.979Z,14.85
2019-02-11T09:08:00.972Z,18.10
2019-02-11T09:10:50.751Z,16.23
2019-02-11T09:13:39.459Z,10.03
2019-02-11T09:16:28.286Z,15.28
2019-02-11T09:19:16.892Z,20.02
2019-02-11T09:22:07.546Z,16.70
2019-02-11T09:24:57.053Z,16.45
2019-02-11T09:27:46.023Z,17.15
2019-02-11T09:30:34.829Z,15.65
2019-02-11T09:33:23.554Z,13.20
2019-02-11T09:36:12.140Z,14.93
2019-02-11T09:39:00.917Z,19.45
2019-02-11T09:41:51.554Z,20.57
2019-02-11T09:44:40.768Z,19.82
2019-02-11T09:47:29.291Z,14.00
2019-02-11T09:50:21.466Z,19.25
2019-02-11T09:53:10.162Z,12.35
2019-02-11T09:55:58.644Z,13.53
2019-02-11T09:58:48.149Z,16.62
2019-02-11T10:01:36.937Z,20.17
2019-02-11T10:04:25.421Z,12.93
2019-02-11T10:07:14.662Z,19.90
2019-02-11T10:10:04.076Z,17.82
2019-02-11T10:12:52.748Z,16.30
2019-02-11T10:15:41.559Z,10.48
2019-02-11T10:18:30.407Z,15.35
2019-02-11T10:21:19.295Z,17.15
2019-02-11T10:24:08.338Z,19.82
2019-02-11T10:26:57.075Z,14.30
2019-02-11T10:29:46.153Z,15.60
2019-02-11T10:32:34.918Z,14.83
2019-02-11T10:35:23.803Z,19.62
2019-02-11T10:38:12.898Z,17.52
2019-02-11T10:41:01.614Z,16.15
2019-02-11T10:43:50.650Z,13.43
2019-02-11T10:46:39.491Z,15.15
2019-02-11T10:49:28.198Z,16.82
2019-02-11T10:52:16.987Z,19.05
2019-02-11T10:55:08.909Z,17.70
2019-02-11T10:57:57.432Z,14.40
2019-02-11T11:00:46.243Z,12.73
2019-02-11T11:03:34.999Z,17.52
2019-02-11T11:06:23.702Z,15.88
2019-02-11T11:09:14.139Z,24.15
2019-02-11T11:12:03.076Z,14.78
2019-02-11T11:14:51.979Z,16.30
2019-02-11T11:26:18.166Z,18.02
2019-02-11T11:28:48.311Z,14.07
2019-02-11T11:31:18.407Z,17.15
2019-02-11T11:33:48.469Z,15.30
2019-02-11T11:36:18.573Z,12.07
2019-02-11T11:38:48.631Z,20.40
2019-02-11T11:41:18.751Z,13.00
2019-02-11T11:43:48.822Z,10.93
2019-02-11T11:46:18.905Z,12.80
2019-02-11T11:48:49.027Z,9.90
2019-02-11T11:51:19.166Z,21.80
2019-02-11T11:53:50.271Z,14.73
2019-02-11T11:56:20.413Z,9.33
2019-02-11T11:58:50.461Z,16.82
2019-02-11T12:01:20.548Z,11.10
2019-02-11T12:03:50.622Z,15.78
2019-02-11T12:06:20.682Z,27.02
2019-02-11T12:08:50.745Z,12.23
2019-02-11T12:11:20.847Z,15.65
2019-02-11T12:13:50.905Z,11.08
2019-02-11T12:16:21.243Z,12.33
2019-02-11T12:18:51.286Z,13.15
2019-02-11T12:21:21.375Z,11.53
2019-02-11T12:23:51.458Z,14.50
2019-02-11T12:26:21.813Z,4.30
2019-02-11T12:28:51.907Z,10.20
2019-02-11T12:31:21.986Z,9.53
2019-02-11T12:33:52.075Z,15.00
2019-02-11T12:36:22.154Z,12.55
2019-02-11T12:38:52.227Z,12.68
2019-02-11T12:41:22.371Z,12.55
2019-02-11T12:43:52.437Z,11.48
2019-02-11T12:46:22.606Z,9.50
2019-02-11T12:48:52.713Z,13.95
2019-02-11T12:51:22.798Z,5.58
2019-02-11T12:53:52.870Z,8.28
2019-02-11T12:56:22.960Z,12.47
2019-02-11T12:58:53.079Z,7.70
2019-02-11T13:01:23.134Z,5.78
2019-02-11T13:03:53.210Z,8.83
2019-02-11T13:06:23.315Z,14.00
2019-02-11T13:08:53.413Z,11.38
2019-02-11T13:11:23.509Z,6.10
2019-02-11T13:13:53.573Z,10.85
2019-02-11T13:16:23.662Z,5.50
2019-02-11T13:18:53.725Z,8.48
2019-02-11T13:21:23.824Z,7.50
2019-02-11T13:23:55.342Z,12.23
2019-02-11T13:26:25.500Z,6.05
2019-02-11T13:28:55.540Z,6.53
2019-02-11T13:31:25.630Z,5.20
2019-02-11T13:33:55.695Z,6.03
2019-02-11T13:36:25.789Z,3.75
2019-02-11T13:38:55.841Z,4.12
2019-02-11T13:41:25.963Z,4.40
2019-02-11T13:43:56.119Z,2.05
2019-02-11T13:46:26.163Z,4.22
2019-02-11T13:48:56.259Z,5.87
2019-02-11T13:51:26.316Z,4.97
2019-02-11T13:53:56.411Z,2.08
2019-02-11T13:56:26.471Z,4.65
2019-02-11T13:58:56.559Z,4.80
2019-02-11T14:01:26.619Z,3.20
2019-02-11T14:03:56.789Z,3.87
2019-02-11T14:06:27.002Z,3.17
2019-02-11T14:08:57.110Z,3.62
2019-02-11T14:11:27.442Z,0.82
2019-02-11T14:14:02.229Z,2.65
2019-02-11T14:16:29.274Z,1.90
2019-02-11T14:18:59.725Z,5.47
2019-02-11T14:21:29.802Z,1.77
2019-02-11T14:23:59.988Z,4.87
2019-02-11T14:26:30.103Z,2.08
2019-02-11T14:29:00.216Z,2.37
2019-02-11T14:31:31.255Z,3.58
2019-02-11T14:34:01.798Z,3.40
2019-02-11T14:36:31.920Z,3.85
2019-02-11T14:39:02.408Z,1.92
2019-02-11T14:41:34.284Z,2.08
2019-02-11T14:44:04.444Z,2.47
2019-02-11T14:46:34.735Z,2.30
2019-02-11T14:49:06.335Z,1.17
2019-02-11T14:51:36.496Z,2.22
2019-02-11T14:54:06.778Z,1.32
2019-02-11T14:56:37.317Z,1.45
2019-02-11T14:59:07.774Z,25.72
2019-02-11T15:01:37.904Z,2.47
2019-02-11T15:04:08.111Z,4.20
2019-02-11T15:06:38.417Z,4.75
2019-02-11T15:09:08.678Z,1.62
2019-02-11T15:11:39.771Z,3.15
2019-02-11T15:14:10.124Z,3.77
2019-02-11T15:16:40.445Z,4.75
2019-02-11T15:19:11.484Z,2.90
2019-02-11T15:21:41.683Z,4.53
2019-02-11T15:24:12.132Z,3.12
2019-02-11T15:26:42.762Z,2.00
2019-02-11T15:29:13.188Z,4.03
2019-02-11T15:31:43.614Z,1.37
2019-02-11T15:34:13.946Z,3.98
2019-02-11T15:36:44.362Z,3.25
2019-02-11T15:39:14.801Z,4.22
2019-02-11T15:41:45.224Z,3.02
2019-02-11T15:44:15.740Z,2.77
2019-02-11T15:46:46.270Z,2.17
2019-02-11T15:49:16.693Z,3.25
2019-02-11T15:51:47.226Z,3.05
2019-02-11T15:54:18.574Z,4.12
2019-02-11T15:56:48.995Z,2.27
2019-02-11T15:59:19.568Z,3.67
2019-02-11T16:01:50.035Z,0.90
2019-02-11T16:04:21.631Z,2.33
2019-02-11T16:06:52.027Z,8.53
2019-02-11T16:09:22.242Z,3.50
2019-02-11T16:11:53.280Z,5.75
2019-02-11T16:14:23.919Z,3.12
2019-02-11T16:16:54.344Z,3.85
2019-02-11T16:19:26.411Z,3.67
2019-02-11T16:21:57.623Z,5.47
2019-02-11T16:24:27.983Z,2.60
2019-02-11T16:26:58.280Z,5.55
2019-02-11T16:29:28.934Z,4.72
2019-02-11T16:32:00.707Z,4.70
2019-02-11T16:34:32.446Z,6.72
2019-02-11T16:37:03.009Z,6.33
2019-02-11T16:39:33.500Z,3.50
2019-02-11T16:42:04.677Z,2.85
2019-02-11T16:44:35.377Z,1.95
2019-02-11T16:47:07.449Z,4.72
2019-02-11T16:49:37.884Z,3.27
2019-02-11T16:52:08.398Z,7.15
2019-02-11T16:54:38.830Z,4.50
2019-02-11T16:57:20.100Z,4.47
2019-02-11T16:59:53.058Z,4.62
2019-02-11T17:02:23.613Z,7.28
2019-02-11T17:04:54.294Z,3.75
2019-02-11T17:07:24.885Z,8.55
2019-02-11T17:09:55.418Z,4.75
2019-02-11T17:12:26.151Z,3.92
2019-02-11T17:14:58.094Z,5.65
2019-02-11T17:17:28.634Z,5.97
2019-02-11T17:19:59.939Z,4.92
2019-02-11T17:22:30.495Z,3.05
2019-02-11T17:25:01.234Z,4.10
2019-02-11T17:27:33.525Z,1.90
2019-02-11T17:30:04.912Z,3.08
2019-02-11T17:32:35.504Z,5.67
2019-02-11T17:35:08.466Z,4.83
2019-02-11T17:37:40.016Z,2.10
2019-02-11T17:40:14.562Z,2.40
2019-02-11T17:42:45.437Z,2.08
2019-02-11T17:45:25.528Z,5.25
2019-02-11T17:47:56.523Z,3.85
2019-02-11T17:50:27.093Z,4.47
2019-02-11T17:53:03.766Z,3.55
2019-02-11T17:55:34.486Z,5.40
2019-02-11T17:58:05.848Z,2.52
2019-02-11T18:00:41.514Z,3.83
2019-02-11T18:05:44.603Z,5.70
2019-02-11T18:08:15.132Z,3.75
2019-02-11T18:10:48.093Z,5.97
2019-02-11T18:13:21.479Z,6.58
2019-02-11T18:15:52.238Z,5.75
2019-02-11T18:18:24.256Z,5.50
2019-02-11T18:20:57.363Z,3.37
2019-02-11T18:23:28.611Z,3.00
2019-02-11T18:25:59.596Z,5.12
2019-02-11T18:28:30.509Z,6.62
2019-02-11T18:31:02.977Z,2.95
2019-02-11T18:33:33.720Z,2.45
2019-02-11T18:36:04.279Z,1.77
2019-02-11T18:38:36.057Z,1.98
2019-02-11T18:41:08.587Z,2.72
2019-02-11T18:43:39.516Z,4.80
2019-02-11T18:46:11.310Z,2.65
2019-02-11T18:48:42.315Z,4.50
2019-02-11T18:51:14.526Z,4.05
2019-02-11T18:53:45.318Z,2.75
2019-02-11T18:56:16.250Z,1.55
2019-02-11T18:58:46.679Z,4.10
2019-02-11T19:01:17.307Z,3.95
2019-02-11T19:03:47.863Z,4.33
2019-02-11T19:06:19.323Z,1.47
2019-02-11T19:08:51.555Z,2.30
2019-02-11T19:11:24.913Z,5.35
2019-02-11T19:13:56.193Z,3.08
2019-02-11T19:16:27.038Z,2.95
2019-02-11T19:18:57.805Z,5.72
2019-02-11T19:21:30.032Z,2.65
2019-02-11T19:24:01.211Z,1.35
2019-02-11T19:26:31.949Z,7.55
2019-02-11T19:29:02.609Z,4.67
2019-02-11T19:31:37.846Z,3.77
2019-02-11T19:34:09.738Z,8.65
2019-02-11T19:36:40.541Z,4.53
2019-02-11T19:39:12.024Z,1.95
2019-02-11T19:41:43.479Z,5.12
2019-02-11T19:44:15.748Z,3.98
2019-02-11T19:46:49.295Z,4.30
2019-02-11T19:49:19.947Z,5.85
2019-02-11T19:51:50.933Z,4.42
2019-02-11T19:54:21.436Z,2.87
2019-02-11T19:56:51.978Z,4.67
2019-02-11T19:59:23.623Z,1.80
2019-02-11T20:01:55.163Z,3.05
2019-02-11T20:04:26.105Z,6.35
2019-02-11T20:06:56.948Z,2.72
2019-02-11T20:09:32.890Z,5.58
2019-02-11T20:12:01.343Z,2.33
2019-02-11T20:14:32.355Z,2.70
2019-02-11T20:17:03.154Z,4.75
2019-02-11T20:19:33.680Z,3.55
2019-02-11T20:23:58.469Z,4.80
2019-02-11T20:26:31.163Z,3.67
2019-02-11T20:29:03.399Z,3.80
2019-02-11T20:31:34.317Z,3.92
2019-02-11T20:34:04.898Z,3.20
2019-02-11T20:36:36.246Z,3.35
2019-02-11T20:39:07.271Z,2.52
2019-02-11T20:41:38.683Z,9.58
2019-02-11T20:44:09.366Z,5.97
2019-02-11T20:46:39.896Z,4.25
2019-02-11T20:49:10.793Z,3.20
2019-02-11T20:51:41.665Z,2.72
2019-02-11T20:54:14.033Z,3.50
2019-02-11T20:56:46.120Z,5.50
2019-02-11T20:59:17.145Z,5.62
2019-02-11T21:01:49.879Z,5.50
2019-02-11T21:04:22.840Z,5.45
2019-02-11T21:06:53.398Z,7.92
2019-02-11T21:09:24.617Z,5.92
2019-02-11T21:11:55.314Z,4.00
2019-02-11T21:14:26.088Z,6.47
2019-02-11T21:16:57.679Z,2.55
2019-02-11T21:19:30.959Z,1.55
2019-02-11T21:22:04.199Z,2.70
2019-02-11T21:24:35.722Z,5.40
2019-02-11T21:27:06.564Z,6.33
2019-02-11T21:29:38.317Z,8.35
2019-02-11T21:32:08.857Z,4.53
2019-02-11T21:34:39.385Z,6.95
2019-02-11T21:37:13.123Z,11.18
2019-02-11T21:39:43.733Z,7.03
2019-02-11T21:42:14.345Z,2.17
2019-02-11T21:44:44.801Z,4.75
2019-02-11T21:47:15.506Z,9.78
2019-02-11T21:49:46.237Z,8.93
2019-02-11T21:52:16.664Z,8.23
2019-02-11T21:54:47.397Z,8.93
2019-02-11T21:57:17.976Z,9.00
2019-02-11T21:59:48.564Z,9.75
2019-02-11T22:02:18.920Z,8.63
2019-02-11T22:04:49.512Z,10.35
2019-02-11T22:07:20.040Z,6.08
2019-02-11T22:09:51.383Z,11.43
2019-02-11T22:12:24.698Z,11.10
2019-02-11T22:14:55.922Z,8.53
2019-02-11T22:17:26.245Z,10.53
2019-02-11T22:19:56.567Z,11.83
2019-02-11T22:22:26.994Z,10.75
2019-02-11T22:24:57.417Z,12.75
2019-02-11T22:27:27.847Z,13.90
2019-02-11T22:29:58.050Z,6.62
2019-02-11T22:32:28.491Z,17.42
2019-02-11T22:34:58.713Z,12.73
2019-02-11T22:37:29.137Z,14.35
2019-02-11T22:40:01.205Z,10.93
2019-02-11T22:42:31.834Z,20.23
2019-02-11T22:45:02.025Z,5.20
2019-02-11T22:47:32.273Z,8.43
2019-02-11T22:50:02.698Z,14.50
2019-02-11T22:52:32.802Z,9.50
2019-02-11T22:55:03.038Z,10.72
2019-02-11T22:57:33.259Z,10.30
2019-02-11T23:00:03.365Z,9.20
2019-02-11T23:02:34.933Z,12.35
2019-02-11T23:05:06.120Z,8.28
2019-02-11T23:07:36.250Z,12.85
2019-02-11T23:10:07.367Z,14.43
2019-02-11T23:12:37.499Z,11.68
2019-02-11T23:15:09.043Z,12.18
2019-02-11T23:17:39.139Z,15.83
2019-02-11T23:20:09.463Z,11.97
2019-02-11T23:22:39.514Z,15.60
2019-02-11T23:25:09.600Z,11.00
2019-02-11T23:27:39.856Z,9.38
2019-02-11T23:30:13.468Z,8.98
2019-02-11T23:32:41.626Z,7.00
2019-02-11T23:35:11.689Z,15.65
2019-02-11T23:37:41.790Z,11.97
2019-02-11T23:40:11.877Z,20.92
2019-02-11T23:42:41.951Z,10.63
2019-02-11T23:45:12.012Z,17.82
2019-02-11T23:47:42.120Z,12.37
2019-02-11T23:50:12.478Z,9.18
2019-02-11T23:52:42.563Z,15.55
2019-02-11T23:55:12.626Z,11.33
2019-02-11T23:57:42.739Z,13.48
